Time;durP1;ratioP1;P1;durP2;ratioP2;P2;SDS_P1;SDS_P2;PMS_P1;PMS_P2;Temp;Humidity;BMP_temperature;BMP_pressure;BME280_temperature;BME280_humidity;BME280_pressure;Samples;Min_cycle;Max_cycle;Signal;HPM_P1;HPM_P2
2021/06/12 00:02:11;;;;;;;;;;;;;;;19.87;63.41;101619.50;5064195;28;1777;-65
2021/06/12 00:04:36;;;;;;;;;;;;;;;19.80;64.23;101615.63;5061562;28;1275;-65
2021/06/12 00:07:01;;;;;;;;;;;;;;;20.07;62.89;101610.38;5063022;28;1173;-65
2021/06/12 00:09:26;;;;;;;;;;;;;;;19.82;63.74;101608.25;5071086;28;1960;-65
2021/06/12 00:11:51;;;;;;;;;;;;;;;19.91;63.68;101607.38;5061437;28;1300;-65
2021/06/12 00:14:17;;;;;;;;;;;;;;;19.97;62.71;101596.00;5072942;28;1210;-65
2021/06/12 00:16:42;;;;;;;;;;;;;;;20.38;61.60;101603.00;5065809;28;1138;-65
2021/06/12 00:19:07;;;;;;;;;;;;;;;20.08;62.68;101595.84;5065999;28;1422;-65
2021/06/12 00:21:36;;;;;;;;;;;;;;;19.80;63.77;101594.00;5072772;28;1179;-65
2021/06/12 00:24:01;;;;;;;;;;;;;;;19.73;63.81;101599.09;5063611;28;1523;-65
2021/06/12 00:26:26;;;;;;;;;;;;;;;19.70;63.84;101596.72;5063505;28;1155;-65
2021/06/12 00:28:51;;;;;;;;;;;;;;;19.74;63.33;101598.97;5067842;28;1190;-65
2021/06/12 00:31:16;;;;;;;;;;;;;;;19.79;63.61;101593.16;5070206;28;1977;-65
2021/06/12 00:33:41;;;;;;;;;;;;;;;19.89;63.53;101593.13;5060867;28;1202;-65
2021/06/12 00:36:06;;;;;;;;;;;;;;;19.77;63.56;101603.25;5073762;28;1262;-65
2021/06/12 00:38:31;;;;;;;;;;;;;;;19.73;63.38;101599.97;5057572;28;1896;-65
2021/06/12 00:40:56;;;;;;;;;;;;;;;19.75;63.73;101586.31;5058858;28;1808;-65
2021/06/12 00:43:21;;;;;;;;;;;;;;;19.69;64.47;101590.44;5070951;28;1131;-66
2021/06/12 00:45:47;;;;;;;;;;;;;;;19.73;63.72;101580.16;5060420;28;1138;-66
2021/06/12 00:48:12;;;;;;;;;;;;;;;19.82;63.07;101582.03;5072732;28;1363;-65
2021/06/12 00:50:37;;;;;;;;;;;;;;;19.88;62.90;101586.03;5064516;28;1969;-65
2021/06/12 00:53:02;;;;;;;;;;;;;;;19.97;62.60;101594.16;5065861;28;1142;-64
2021/06/12 00:55:27;;;;;;;;;;;;;;;19.85;63.39;101597.16;5071457;28;1146;-65
2021/06/12 00:57:52;;;;;;;;;;;;;;;19.33;65.14;101602.72;5060651;28;1505;-65
2021/06/12 01:00:17;;;;;;;;;;;;;;;19.55;64.89;101595.38;5071405;28;1291;-65
2021/06/12 01:02:42;;;;;;;;;;;;;;;19.90;63.53;101587.59;5065054;28;1342;-65
2021/06/12 01:05:08;;;;;;;;;;;;;;;19.68;63.77;101591.44;5065386;28;1229;-65
2021/06/12 01:07:33;;;;;;;;;;;;;;;19.46;64.64;101586.22;5071996;28;1322;-65
2021/06/12 01:09:58;;;;;;;;;;;;;;;19.59;64.14;101597.66;5057584;28;1898;-65
2021/06/12 01:12:23;;;;;;;;;;;;;;;19.90;62.71;101594.84;5062114;28;1255;-65
2021/06/12 01:14:48;;;;;;;;;;;;;;;19.82;62.91;101605.53;5067539;28;1145;-65
2021/06/12 01:17:13;;;;;;;;;;;;;;;19.76;63.85;101602.38;5068704;28;1522;-65
2021/06/12 01:19:38;;;;;;;;;;;;;;;19.35;64.99;101595.28;5059778;28;1138;-65
2021/06/12 01:22:03;;;;;;;;;;;;;;;19.26;65.10;101596.13;5072921;28;1270;-65
2021/06/12 01:24:28;;;;;;;;;;;;;;;19.79;63.57;101586.88;5062670;28;1276;-65
2021/06/12 01:26:53;;;;;;;;;;;;;;;19.62;63.98;101596.53;5066513;28;1309;-66
2021/06/12 01:29:18;;;;;;;;;;;;;;;19.65;64.20;101594.41;5069639;28;1967;-67
2021/06/12 01:31:44;;;;;;;;;;;;;;;19.76;63.76;101583.47;5059559;28;1099;-66
2021/06/12 01:34:09;;;;;;;;;;;;;;;19.56;64.15;101584.41;5072451;28;1213;-66
2021/06/12 01:36:34;;;;;;;;;;;;;;;19.31;64.93;101583.06;5058325;28;1472;-63
2021/06/12 01:38:59;;;;;;;;;;;;;;;19.33;65.16;101580.22;5066661;28;1285;-63
2021/06/12 01:41:24;;;;;;;;;;;;;;;19.58;64.69;101578.88;5061802;28;1251;-63
2021/06/12 01:43:49;;;;;;;;;;;;;;;19.72;63.84;101573.06;5072609;28;1371;-64
2021/06/12 01:46:14;;;;;;;;;;;;;;;19.62;63.90;101564.94;5060049;28;1444;-63
2021/06/12 01:48:39;;;;;;;;;;;;;;;19.56;64.12;101573.59;5074229;28;1460;-63
2021/06/12 01:51:04;;;;;;;;;;;;;;;19.48;64.44;101569.88;5064293;28;1902;-63
2021/06/12 01:53:33;;;;;;;;;;;;;;;19.48;64.41;101578.84;5070570;28;1264;-63
2021/06/12 01:55:58;;;;;;;;;;;;;;;19.54;64.15;101585.56;5058154;28;1432;-63
2021/06/12 01:58:23;;;;;;;;;;;;;;;19.49;64.61;101585.97;5061389;28;1175;-63
2021/06/12 02:00:48;;;;;;;;;;;;;;;19.61;63.95;101594.81;5066450;28;1130;-63
2021/06/12 02:03:13;;;;;;;;;;;;;;;19.81;63.04;101588.44;5068067;28;1151;-64
2021/06/12 02:05:38;;;;;;;;;;;;;;;19.79;63.10;101584.19;5059591;28;1194;-66
2021/06/12 02:08:03;;;;;;;;;;;;;;;19.58;64.46;101578.88;5072452;28;1860;-66
2021/06/12 02:10:28;;;;;;;;;;;;;;;19.61;64.51;101579.47;5061441;28;1906;-67
2021/06/12 02:12:53;;;;;;;;;;;;;;;19.77;63.76;101574.34;5065683;28;1290;-67
2021/06/12 02:15:18;;;;;;;;;;;;;;;19.91;62.79;101572.22;5068371;28;1442;-66
2021/06/12 02:17:43;;;;;;;;;;;;;;;19.93;63.24;101575.63;5074839;28;1202;-67
2021/06/12 02:20:08;;;;;;;;;;;;;;;19.98;62.84;101565.25;5058950;28;1310;-65
2021/06/12 02:22:33;;;;;;;;;;;;;;;19.76;63.57;101556.41;5067767;28;1157;-65
2021/06/12 02:24:59;;;;;;;;;;;;;;;19.59;64.57;101549.00;5064438;28;1041;-65
2021/06/12 02:27:24;;;;;;;;;;;;;;;19.91;62.72;101546.00;5059740;28;1573;-65
2021/06/12 02:29:49;;;;;;;;;;;;;;;19.56;64.14;101548.41;5071350;28;1914;-65
2021/06/12 02:32:14;;;;;;;;;;;;;;;19.49;64.60;101550.81;5058678;28;1142;-64
2021/06/12 02:34:39;;;;;;;;;;;;;;;19.52;63.68;101558.69;5067139;28;1246;-64
2021/06/12 02:37:04;;;;;;;;;;;;;;;19.67;63.77;101562.69;5060844;28;1817;-65
2021/06/12 02:39:29;;;;;;;;;;;;;;;19.71;63.70;101558.69;5069735;28;1222;-65
2021/06/12 02:41:54;;;;;;;;;;;;;;;19.76;63.49;101564.53;5058103;28;1241;-65
2021/06/12 02:44:19;;;;;;;;;;;;;;;19.89;63.39;101571.50;5069666;28;1032;-65
2021/06/12 02:46:44;;;;;;;;;;;;;;;19.56;64.09;101576.31;5055257;28;1707;-65
2021/06/12 02:49:09;;;;;;;;;;;;;;;19.50;64.63;101574.19;5066898;28;1965;-65
2021/06/12 02:51:35;;;;;;;;;;;;;;;19.57;64.13;101571.75;5059209;28;1286;-64
2021/06/12 02:54:00;;;;;;;;;;;;;;;19.75;63.54;101576.34;5071040;28;1277;-64
2021/06/12 02:56:25;;;;;;;;;;;;;;;19.89;62.64;101572.34;5062698;28;1758;-66
2021/06/12 02:58:50;;;;;;;;;;;;;;;19.89;63.20;101566.09;5064092;28;1753;-66
2021/06/12 03:01:15;;;;;;;;;;;;;;;19.76;63.00;101566.38;5061747;28;1142;-66
2021/06/12 03:03:40;;;;;;;;;;;;;;;19.53;64.12;101568.47;5070809;28;1300;-66
2021/06/12 03:06:05;;;;;;;;;;;;;;;19.91;63.19;101564.94;5058064;28;1600;-66
2021/06/12 03:08:30;;;;;;;;;;;;;;;20.00;62.01;101560.53;5074505;28;1122;-66
2021/06/12 03:10:55;;;;;;;;;;;;;;;19.77;63.23;101571.66;5063980;28;1945;-65
2021/06/12 03:13:22;;;;;;;;;;;;;;;19.42;64.27;101568.56;5068037;28;1096;-65
2021/06/12 03:15:47;;;;;;;;;;;;;;;19.35;64.17;101567.41;5067707;28;1588;-66
2021/06/12 03:18:12;;;;;;;;;;;;;;;19.39;63.76;101568.84;5058398;28;1041;-64
2021/06/12 03:20:37;;;;;;;;;;;;;;;19.49;63.26;101563.47;5066807;28;1024;-64
2021/06/12 03:23:02;;;;;;;;;;;;;;;19.34;63.36;101571.13;5065428;28;1285;-64
2021/06/12 03:25:27;;;;;;;;;;;;;;;19.18;64.08;101578.88;5059920;28;1503;-66
2021/06/12 03:27:52;;;;;;;;;;;;;;;19.29;64.10;101567.97;5070913;28;1333;-65
2021/06/12 03:30:17;;;;;;;;;;;;;;;18.98;64.48;101573.44;5059151;28;1986;-65
2021/06/12 03:32:42;;;;;;;;;;;;;;;19.16;63.60;101579.06;5065956;28;1238;-65
2021/06/12 03:35:08;;;;;;;;;;;;;;;19.31;63.18;101583.06;5065826;28;1430;-66
2021/06/12 03:37:33;;;;;;;;;;;;;;;19.25;63.32;101593.56;5074299;28;1059;-67
2021/06/12 03:39:58;;;;;;;;;;;;;;;19.24;63.16;101595.41;5057538;28;1163;-67
2021/06/12 03:42:23;;;;;;;;;;;;;;;19.07;63.57;101607.72;5070065;28;1161;-67
2021/06/12 03:44:48;;;;;;;;;;;;;;;19.08;63.55;101605.88;5067284;28;1403;-66
2021/06/12 03:47:13;;;;;;;;;;;;;;;19.09;63.18;101599.50;5065371;28;1138;-65
2021/06/12 03:49:38;;;;;;;;;;;;;;;19.02;63.22;101604.56;5072916;28;1901;-64
2021/06/12 03:52:03;;;;;;;;;;;;;;;19.04;63.62;101597.19;5061435;28;1436;-64
2021/06/12 03:54:28;;;;;;;;;;;;;;;19.06;63.15;101594.34;5076279;28;1448;-64
2021/06/12 03:56:53;;;;;;;;;;;;;;;18.95;63.41;101583.66;5068176;28;1150;-65
2021/06/12 03:59:18;;;;;;;;;;;;;;;19.14;62.71;101590.97;5071305;28;1166;-65
2021/06/12 04:01:44;;;;;;;;;;;;;;;19.03;62.87;101610.81;5059986;28;2802;-65
2021/06/12 04:04:09;;;;;;;;;;;;;;;19.03;62.73;101619.78;5073788;28;1870;-65
2021/06/12 04:06:34;;;;;;;;;;;;;;;18.87;63.24;101616.72;5064965;28;1188;-65
2021/06/12 04:08:59;;;;;;;;;;;;;;;18.78;63.77;101601.34;5067153;28;1078;-64
2021/06/12 04:11:24;;;;;;;;;;;;;;;18.91;63.02;101607.38;5071498;28;1902;-64
2021/06/12 04:13:49;;;;;;;;;;;;;;;18.53;64.33;101613.38;5067283;28;1490;-64
2021/06/12 04:16:14;;;;;;;;;;;;;;;18.60;63.93;101619.16;5062336;28;1214;-64
2021/06/12 04:18:39;;;;;;;;;;;;;;;18.47;64.82;101623.84;5069454;28;1056;-64
2021/06/12 04:21:04;;;;;;;;;;;;;;;18.63;64.06;101633.22;5068885;28;1182;-64
2021/06/12 04:23:29;;;;;;;;;;;;;;;18.58;64.03;101621.09;5061994;28;1706;-64
2021/06/12 04:25:54;;;;;;;;;;;;;;;18.84;63.16;101621.53;5073875;28;1928;-64
2021/06/12 04:28:20;;;;;;;;;;;;;;;18.88;63.12;101629.25;5062666;28;1174;-64
2021/06/12 04:30:45;;;;;;;;;;;;;;;18.78;63.77;101633.75;5075178;28;1910;-64
2021/06/12 04:33:10;;;;;;;;;;;;;;;18.81;63.47;101632.63;5065153;28;1153;-64
2021/06/12 04:35:35;;;;;;;;;;;;;;;19.04;62.94;101623.34;5071663;28;1128;-66
2021/06/12 04:38:00;;;;;;;;;;;;;;;18.85;63.43;101626.81;5060741;28;1638;-67
2021/06/12 04:40:25;;;;;;;;;;;;;;;18.63;63.99;101621.59;5070808;28;1743;-67
2021/06/12 04:42:50;;;;;;;;;;;;;;;18.67;63.93;101625.69;5065092;28;2718;-67
2021/06/12 04:45:15;;;;;;;;;;;;;;;18.68;63.45;101625.56;5064237;28;1118;-67
2021/06/12 04:47:40;;;;;;;;;;;;;;;18.75;63.30;101622.34;5073325;28;1115;-66
2021/06/12 04:50:05;;;;;;;;;;;;;;;19.05;62.66;101625.91;5057298;28;1898;-66
2021/06/12 04:52:31;;;;;;;;;;;;;;;19.09;62.35;101629.22;5063748;28;1099;-66
2021/06/12 04:54:56;;;;;;;;;;;;;;;18.68;63.52;101624.72;5065811;28;1258;-66
2021/06/12 04:57:21;;;;;;;;;;;;;;;18.59;63.74;101623.69;5070549;28;1221;-66
2021/06/12 04:59:46;;;;;;;;;;;;;;;18.68;63.22;101622.88;5060346;28;1610;-66
2021/06/12 05:02:11;;;;;;;;;;;;;;;18.72;63.40;101640.53;5062309;28;1886;-65
2021/06/12 05:04:36;;;;;;;;;;;;;;;18.69;62.93;101638.09;5069195;28;1361;-65
2021/06/12 05:07:01;;;;;;;;;;;;;;;18.76;62.97;101651.06;5067620;28;1205;-65
2021/06/12 05:09:26;;;;;;;;;;;;;;;18.97;62.14;101660.88;5062586;28;1898;-65
2021/06/12 05:11:51;;;;;;;;;;;;;;;18.79;62.58;101665.16;5059707;28;1607;-65
2021/06/12 05:14:16;;;;;;;;;;;;;;;18.86;62.38;101662.78;5072095;28;1362;-65
2021/06/12 05:16:41;;;;;;;;;;;;;;;18.77;62.61;101664.44;5063945;28;2693;-65
2021/06/12 05:19:06;;;;;;;;;;;;;;;19.02;61.84;101653.19;5059068;28;1885;-65
2021/06/12 05:21:32;;;;;;;;;;;;;;;19.22;61.25;101651.44;5057875;28;1650;-65
2021/06/12 05:23:57;;;;;;;;;;;;;;;19.38;60.52;101649.09;5067768;28;1829;-65
2021/06/12 05:26:22;;;;;;;;;;;;;;;19.48;60.51;101653.69;5064247;28;1843;-65
2021/06/12 05:28:47;;;;;;;;;;;;;;;19.37;60.53;101652.78;5071574;28;1679;-66
2021/06/12 05:31:12;;;;;;;;;;;;;;;19.56;60.11;101654.72;5063767;28;1989;-66
2021/06/12 05:33:37;;;;;;;;;;;;;;;19.65;59.94;101650.34;5071435;28;1265;-64
2021/06/12 05:36:02;;;;;;;;;;;;;;;19.51;59.70;101658.84;5059400;28;1634;-64
2021/06/12 05:38:27;;;;;;;;;;;;;;;19.40;60.51;101657.91;5070417;28;1406;-65
2021/06/12 05:40:52;;;;;;;;;;;;;;;19.30;60.34;101656.19;5057218;28;1808;-65
2021/06/12 05:43:17;;;;;;;;;;;;;;;19.33;60.84;101658.63;5060607;28;1316;-65
2021/06/12 05:45:44;;;;;;;;;;;;;;;19.26;60.54;101655.59;5060264;28;1433;-66
2021/06/12 05:48:09;;;;;;;;;;;;;;;19.20;60.84;101649.88;5056420;28;1428;-67
2021/06/12 05:50:34;;;;;;;;;;;;;;;19.52;59.46;101650.59;5061264;28;1898;-65
2021/06/12 05:52:59;;;;;;;;;;;;;;;19.48;59.78;101654.53;5071571;28;1399;-65
2021/06/12 05:55:24;;;;;;;;;;;;;;;19.50;60.08;101646.31;5069190;28;1617;-66
2021/06/12 05:57:49;;;;;;;;;;;;;;;19.62;59.58;101648.78;5070094;28;1398;-65
2021/06/12 06:00:14;;;;;;;;;;;;;;;19.22;60.06;101661.41;5075017;28;2120;-65
2021/06/12 06:02:39;;;;;;;;;;;;;;;19.39;59.64;101661.59;5063330;28;1409;-64
2021/06/12 06:05:04;;;;;;;;;;;;;;;19.48;59.26;101667.19;5066917;28;1334;-65
2021/06/12 06:07:29;;;;;;;;;;;;;;;19.27;59.71;101675.38;5069581;28;1254;-65
2021/06/12 06:09:55;;;;;;;;;;;;;;;19.50;58.95;101676.91;5072247;28;1959;-66
2021/06/12 06:12:20;;;;;;;;;;;;;;;19.21;59.57;101678.59;5075752;28;1787;-66
2021/06/12 06:14:45;;;;;;;;;;;;;;;19.53;59.08;101670.34;5061353;28;1706;-67
2021/06/12 06:17:10;;;;;;;;;;;;;;;19.22;59.32;101683.88;5071402;28;1856;-65
2021/06/12 06:19:35;;;;;;;;;;;;;;;19.50;58.69;101678.78;5073736;28;1560;-66
2021/06/12 06:22:00;;;;;;;;;;;;;;;19.65;58.36;101688.22;5073044;28;1687;-65
2021/06/12 06:24:25;;;;;;;;;;;;;;;19.49;58.39;101680.59;5061316;28;1624;-66
2021/06/12 06:26:50;;;;;;;;;;;;;;;19.45;58.44;101676.44;5056180;28;1990;-66
2021/06/12 06:29:15;;;;;;;;;;;;;;;19.33;58.18;101678.38;5069046;28;2292;-65
2021/06/12 06:31:40;;;;;;;;;;;;;;;19.25;57.80;101683.59;5055438;28;1770;-65
2021/06/12 06:34:05;;;;;;;;;;;;;;;19.25;57.39;101690.84;5055277;28;1759;-65
2021/06/12 06:36:31;;;;;;;;;;;;;;;19.31;57.12;101690.31;5055484;28;2078;-65
2021/06/12 06:38:56;;;;;;;;;;;;;;;19.43;57.22;101686.53;5060535;28;1889;-66
2021/06/12 06:41:21;;;;;;;;;;;;;;;19.44;56.81;101696.34;5062004;28;1640;-66
2021/06/12 06:43:46;;;;;;;;;;;;;;;19.02;57.28;101692.88;5065999;28;1751;-65
2021/06/12 06:46:11;;;;;;;;;;;;;;;19.17;56.16;101693.41;5055744;28;1407;-66
2021/06/12 06:48:36;;;;;;;;;;;;;;;19.24;55.38;101695.41;5063907;28;1385;-66
2021/06/12 06:51:01;;;;;;;;;;;;;;;19.07;55.22;101694.19;5067310;28;1902;-66
2021/06/12 06:53:33;;;;;;;;;;;;;;;19.05;55.25;101692.59;5057447;28;1648;-66
2021/06/12 06:55:58;;;;;;;;;;;;;;;19.15;54.76;101687.25;5057221;28;1358;-66
2021/06/12 06:58:23;;;;;;;;;;;;;;;19.18;54.50;101705.88;5074475;28;1578;-66
2021/06/12 07:00:48;;;;;;;;;;;;;;;18.98;54.80;101708.50;5074291;28;1576;-66
2021/06/12 07:03:13;;;;;;;;;;;;;;;19.05;54.62;101706.09;5074067;28;1984;-66
2021/06/12 07:05:38;;;;;;;;;;;;;;;19.08;54.11;101709.41;5060316;28;1353;-66
2021/06/12 07:08:03;;;;;;;;;;;;;;;18.99;54.15;101715.59;5058808;28;1417;-66
2021/06/12 07:10:28;;;;;;;;;;;;;;;19.06;53.46;101722.19;5072938;28;1993;-66
2021/06/12 07:12:54;;;;;;;;;;;;;;;19.10;53.61;101720.09;5067239;28;1417;-66
2021/06/12 07:15:19;;;;;;;;;;;;;;;18.98;54.08;101719.31;5071233;28;1594;-66
2021/06/12 07:17:44;;;;;;;;;;;;;;;19.06;54.64;101722.19;5071297;28;1884;-65
2021/06/12 07:20:09;;;;;;;;;;;;;;;19.19;54.77;101713.00;5066507;28;1644;-65
2021/06/12 07:22:34;;;;;;;;;;;;;;;19.31;54.83;101720.91;5073648;28;1289;-65
2021/06/12 07:24:59;;;;;;;;;;;;;;;19.56;56.27;101722.31;5073028;28;1633;-65
2021/06/12 07:27:24;;;;;;;;;;;;;;;19.26;55.69;101725.00;5064910;28;1819;-65
2021/06/12 07:29:50;;;;;;;;;;;;;;;19.35;54.97;101730.44;5071766;28;1971;-65
2021/06/12 07:32:15;;;;;;;;;;;;;;;19.41;54.50;101720.94;5061574;28;1516;-65
2021/06/12 07:34:40;;;;;;;;;;;;;;;19.42;53.42;101726.22;5071351;28;1670;-65
2021/06/12 07:37:05;;;;;;;;;;;;;;;19.38;52.73;101723.91;5072425;28;1471;-65
2021/06/12 07:39:30;;;;;;;;;;;;;;;19.43;52.51;101727.94;5059542;28;1533;-66
2021/06/12 07:41:55;;;;;;;;;;;;;;;19.52;52.48;101725.47;5070240;28;1307;-66
2021/06/12 07:44:20;;;;;;;;;;;;;;;19.46;51.54;101731.38;5070030;28;1661;-66
2021/06/12 07:46:45;;;;;;;;;;;;;;;19.67;51.58;101727.66;5073328;28;2085;-66
2021/06/12 07:49:11;;;;;;;;;;;;;;;19.64;50.98;101722.50;5073909;28;1560;-66
2021/06/12 07:51:36;;;;;;;;;;;;;;;19.62;50.27;101737.16;5073880;28;1973;-66
2021/06/12 07:54:02;;;;;;;;;;;;;;;19.65;52.70;101736.88;5072780;28;1512;-67
2021/06/12 07:56:27;;;;;;;;;;;;;;;19.60;51.86;101731.88;5059359;28;1566;-67
2021/06/12 07:58:52;;;;;;;;;;;;;;;19.99;51.00;101740.13;5072791;28;1281;-66
2021/06/12 08:01:17;;;;;;;;;;;;;;;20.12;50.99;101738.00;5072347;28;1410;-67
2021/06/12 08:03:42;;;;;;;;;;;;;;;20.05;49.89;101742.28;5061139;28;1297;-66
2021/06/12 08:06:07;;;;;;;;;;;;;;;19.63;50.30;101734.31;5072892;28;1621;-66
2021/06/12 08:08:32;;;;;;;;;;;;;;;19.50;50.32;101738.25;5073186;28;1377;-66
2021/06/12 08:10:58;;;;;;;;;;;;;;;19.94;48.99;101742.38;5073058;28;1896;-66
2021/06/12 08:13:23;;;;;;;;;;;;;;;19.93;49.00;101741.53;5072435;28;1630;-66
2021/06/12 08:15:48;;;;;;;;;;;;;;;20.10;48.83;101742.69;5071834;28;1308;-66
2021/06/12 08:18:13;;;;;;;;;;;;;;;20.14;48.69;101754.09;5072814;28;1293;-66
2021/06/12 08:20:38;;;;;;;;;;;;;;;20.06;49.02;101754.81;5073163;28;1336;-66
2021/06/12 08:23:03;;;;;;;;;;;;;;;20.11;48.09;101766.91;5059951;28;1845;-66
2021/06/12 08:25:28;;;;;;;;;;;;;;;19.90;48.48;101778.81;5070969;28;1690;-66
2021/06/12 08:27:53;;;;;;;;;;;;;;;20.07;48.10;101784.41;5064841;28;1218;-67
2021/06/12 08:30:19;;;;;;;;;;;;;;;20.07;49.19;101775.44;5075577;28;1914;-66
2021/06/12 08:32:44;;;;;;;;;;;;;;;20.08;48.55;101779.84;5073867;28;1603;-62
2021/06/12 08:35:09;;;;;;;;;;;;;;;19.99;48.64;101778.84;5076590;28;1636;-60
2021/06/12 08:37:34;;;;;;;;;;;;;;;19.87;49.15;101779.09;5072629;28;1526;-61
2021/06/12 08:39:59;;;;;;;;;;;;;;;19.91;48.43;101778.66;5069631;28;1637;-63
2021/06/12 08:42:24;;;;;;;;;;;;;;;19.80;48.02;101781.50;5070393;28;1818;-61
2021/06/12 08:44:49;;;;;;;;;;;;;;;19.82;48.61;101765.97;5073657;28;1712;-63
2021/06/12 08:47:14;;;;;;;;;;;;;;;19.86;48.06;101777.41;5073353;28;1596;-61
2021/06/12 08:49:40;;;;;;;;;;;;;;;19.77;47.78;101793.44;5070420;28;1967;-63
2021/06/12 08:52:05;;;;;;;;;;;;;;;19.77;48.00;101789.88;5071497;28;1594;-61
2021/06/12 08:54:30;;;;;;;;;;;;;;;19.73;47.21;101799.25;5076345;28;1706;-63
2021/06/12 08:56:55;;;;;;;;;;;;;;;19.52;47.12;101785.78;5076318;28;1577;-63
2021/06/12 08:59:20;;;;;;;;;;;;;;;19.60;47.38;101788.66;5074684;28;1625;-64
2021/06/12 09:01:46;;;;;;;;;;;;;;;19.58;46.83;101784.38;5060917;28;1419;-64
2021/06/12 09:04:11;;;;;;;;;;;;;;;19.49;46.96;101788.72;5074263;28;1467;-64
2021/06/12 09:06:36;;;;;;;;;;;;;;;19.49;46.75;101802.25;5074988;28;2443;-64
2021/06/12 09:09:01;;;;;;;;;;;;;;;19.47;47.09;101801.53;5068032;28;1273;-64
2021/06/12 09:11:26;;;;;;;;;;;;;;;19.33;47.32;101793.75;5070413;28;1898;-63
2021/06/12 09:13:54;;;;;;;;;;;;;;;19.47;46.95;101796.13;5066680;28;1475;-64
2021/06/12 09:16:20;;;;;;;;;;;;;;;19.77;46.24;101808.81;5064661;28;1308;-64
2021/06/12 09:18:45;;;;;;;;;;;;;;;19.74;46.53;101806.38;5062721;28;1214;-64
2021/06/12 09:21:10;;;;;;;;;;;;;;;19.66;45.86;101809.75;5068499;28;1454;-64
2021/06/12 09:23:35;;;;;;;;;;;;;;;19.34;45.94;101806.28;5060750;28;1442;-64
2021/06/12 09:26:00;;;;;;;;;;;;;;;19.58;46.09;101816.81;5066756;28;1391;-64
2021/06/12 09:28:25;;;;;;;;;;;;;;;19.72;45.72;101822.72;5064362;28;1245;-64
2021/06/12 09:30:50;;;;;;;;;;;;;;;19.81;45.97;101826.47;5067611;28;1906;-64
2021/06/12 09:33:15;;;;;;;;;;;;;;;19.55;45.58;101836.88;5062731;28;1454;-64
2021/06/12 09:35:41;;;;;;;;;;;;;;;19.41;45.23;101838.03;5072523;28;1209;-63
2021/06/12 09:38:06;;;;;;;;;;;;;;;19.33;44.54;101823.50;5059494;28;1501;-63
2021/06/12 09:40:31;;;;;;;;;;;;;;;19.50;45.13;101824.75;5073769;28;2393;-62
2021/06/12 09:42:56;;;;;;;;;;;;;;;19.87;44.39;101833.22;5067518;28;2444;-62
2021/06/12 09:45:21;;;;;;;;;;;;;;;20.17;43.66;101830.47;5067228;28;1229;-62
2021/06/12 09:47:46;;;;;;;;;;;;;;;20.37;43.97;101837.69;5063627;28;1114;-62
2021/06/12 09:50:12;;;;;;;;;;;;;;;20.51;43.48;101835.56;5066340;28;1889;-63
2021/06/12 09:52:37;;;;;;;;;;;;;;;20.58;43.85;101840.28;5064343;28;1613;-63
2021/06/12 09:55:02;;;;;;;;;;;;;;;20.66;44.55;101858.53;5067809;28;1654;-63
2021/06/12 09:57:28;;;;;;;;;;;;;;;20.72;44.06;101850.72;5064377;28;1759;-63
2021/06/12 09:59:53;;;;;;;;;;;;;;;20.76;44.71;101854.00;5064587;28;1686;-63
2021/06/12 10:02:18;;;;;;;;;;;;;;;20.80;44.81;101852.69;5063755;28;1433;-63
2021/06/12 10:04:43;;;;;;;;;;;;;;;20.82;44.27;101856.13;5065785;28;1614;-63
2021/06/12 10:07:08;;;;;;;;;;;;;;;20.87;44.90;101850.28;5067634;28;1123;-63
2021/06/12 10:09:34;;;;;;;;;;;;;;;20.91;44.63;101851.72;5059806;28;1894;-62
2021/06/12 10:11:59;;;;;;;;;;;;;;;20.93;44.66;101861.44;5071485;28;1481;-62
2021/06/12 10:14:24;;;;;;;;;;;;;;;20.93;44.52;101863.28;5061260;28;1222;-63
2021/06/12 10:16:50;;;;;;;;;;;;;;;20.96;45.09;101861.13;5066597;28;1483;-63
2021/06/12 10:19:16;;;;;;;;;;;;;;;20.98;44.52;101852.84;5068354;28;1572;-63
2021/06/12 10:21:42;;;;;;;;;;;;;;;21.01;44.77;101858.84;5076209;28;893;-63
2021/06/12 10:24:07;;;;;;;;;;;;;;;21.03;45.47;101851.44;5058734;28;949;-63
2021/06/12 10:26:32;;;;;;;;;;;;;;;21.06;44.90;101845.72;5068371;28;1035;-63
2021/06/12 10:28:57;;;;;;;;;;;;;;;21.07;44.97;101855.59;5065487;28;1342;-63
2021/06/12 10:31:22;;;;;;;;;;;;;;;21.09;45.16;101859.00;5061581;28;1911;-62
2021/06/12 10:33:48;;;;;;;;;;;;;;;21.10;45.04;101858.00;5071409;28;1162;-63
2021/06/12 10:36:13;;;;;;;;;;;;;;;21.14;45.62;101864.84;5059416;28;1234;-63
2021/06/12 10:38:38;;;;;;;;;;;;;;;21.15;46.02;101861.13;5069365;28;1452;-63
2021/06/12 10:41:03;;;;;;;;;;;;;;;21.18;45.97;101867.25;5063730;28;1259;-62
2021/06/12 10:43:29;;;;;;;;;;;;;;;21.20;45.24;101863.44;5069718;28;1147;-62
2021/06/12 10:45:54;;;;;;;;;;;;;;;21.22;45.41;101868.72;5058630;28;1071;-63
2021/06/12 10:48:19;;;;;;;;;;;;;;;21.25;45.29;101876.56;5069452;28;1269;-62
2021/06/12 10:50:45;;;;;;;;;;;;;;;21.27;45.62;101871.88;5063684;28;1886;-63
2021/06/12 10:53:10;;;;;;;;;;;;;;;21.27;46.03;101863.75;5062150;28;1142;-63
2021/06/12 10:55:35;;;;;;;;;;;;;;;21.29;45.67;101869.88;5070497;28;1218;-63
2021/06/12 10:58:00;;;;;;;;;;;;;;;21.31;45.57;101870.59;5058092;28;1265;-62
2021/06/12 11:00:25;;;;;;;;;;;;;;;21.30;45.73;101867.03;5074057;28;1728;-62
2021/06/12 11:02:50;;;;;;;;;;;;;;;21.35;45.85;101869.28;5074563;28;1142;-62
2021/06/12 11:05:17;;;;;;;;;;;;;;;21.35;46.42;101877.41;5061885;28;1165;-62
2021/06/12 11:07:42;;;;;;;;;;;;;;;21.37;46.13;101880.84;5054827;28;1093;-63
2021/06/12 11:10:07;;;;;;;;;;;;;;;21.37;46.54;101886.25;5070457;28;1943;-62
2021/06/12 11:12:34;;;;;;;;;;;;;;;21.37;46.26;101884.41;5062294;28;1171;-62
2021/06/12 11:15:00;;;;;;;;;;;;;;;21.39;46.69;101884.25;5064096;28;1229;-62
2021/06/12 11:17:25;;;;;;;;;;;;;;;21.40;46.30;101896.81;5068546;28;1294;-63
2021/06/12 11:19:50;;;;;;;;;;;;;;;21.40;46.60;101900.41;5072474;28;1340;-62
2021/06/12 11:22:15;;;;;;;;;;;;;;;21.43;46.41;101888.41;5058970;28;1213;-62
2021/06/12 11:24:41;;;;;;;;;;;;;;;21.44;47.03;101895.53;5066431;28;1103;-62
2021/06/12 11:27:06;;;;;;;;;;;;;;;21.44;46.96;101888.25;5054251;28;936;-62
2021/06/12 11:29:31;;;;;;;;;;;;;;;21.46;46.57;101897.13;5069562;28;1914;-62
2021/06/12 11:31:56;;;;;;;;;;;;;;;21.46;46.32;101897.13;5058319;28;1381;-62
2021/06/12 11:34:21;;;;;;;;;;;;;;;21.47;47.13;101897.97;5075039;28;1101;-62
2021/06/12 11:36:46;;;;;;;;;;;;;;;21.48;46.62;101896.97;5065765;28;1507;-62
2021/06/12 11:39:12;;;;;;;;;;;;;;;21.48;47.16;101905.97;5069339;28;1857;-62
2021/06/12 11:41:37;;;;;;;;;;;;;;;21.49;47.36;101904.13;5059121;28;1519;-63
2021/06/12 11:44:02;;;;;;;;;;;;;;;21.51;47.13;101910.22;5071395;28;1623;-63
2021/06/12 11:46:27;;;;;;;;;;;;;;;21.50;47.06;101905.78;5061101;28;1432;-63
2021/06/12 11:48:52;;;;;;;;;;;;;;;21.50;47.26;101916.63;5065066;28;1658;-63
2021/06/12 11:51:17;;;;;;;;;;;;;;;21.53;46.49;101920.94;5068119;28;1953;-63
2021/06/12 11:53:44;;;;;;;;;;;;;;;21.54;47.22;101909.06;5058144;28;1526;-63
2021/06/12 11:56:09;;;;;;;;;;;;;;;21.55;47.18;101911.66;5071279;28;1428;-62
2021/06/12 11:58:34;;;;;;;;;;;;;;;21.56;47.22;101909.78;5058674;28;1980;-63
2021/06/12 12:00:59;;;;;;;;;;;;;;;21.57;47.14;101917.78;5065077;28;1369;-62
2021/06/12 12:03:24;;;;;;;;;;;;;;;21.58;47.19;101919.50;5064214;28;1452;-63
2021/06/12 12:05:49;;;;;;;;;;;;;;;21.58;47.35;101916.78;5073959;28;1319;-63
2021/06/12 12:08:14;;;;;;;;;;;;;;;21.59;47.66;101915.78;5067006;28;1341;-62
2021/06/12 12:10:40;;;;;;;;;;;;;;;21.61;47.87;101908.38;5069296;28;1939;-62
2021/06/12 12:13:05;;;;;;;;;;;;;;;21.62;47.43;101909.22;5068723;28;2202;-63
2021/06/12 12:15:30;;;;;;;;;;;;;;;21.64;47.18;101910.78;5078012;28;1155;-62
2021/06/12 12:17:55;;;;;;;;;;;;;;;21.62;47.21;101915.50;5065816;28;1603;-63
2021/06/12 12:20:20;;;;;;;;;;;;;;;21.64;47.24;101912.66;5062800;28;1496;-63
2021/06/12 12:22:49;;;;;;;;;;;;;;;21.65;47.17;101920.66;5068755;28;1364;-63
2021/06/12 12:25:14;;;;;;;;;;;;;;;21.67;47.21;101920.50;5070108;28;1037;-63
2021/06/12 12:27:39;;;;;;;;;;;;;;;21.68;47.22;101920.34;5061120;28;1225;-62
2021/06/12 12:30:05;;;;;;;;;;;;;;;21.69;46.42;101930.19;5076410;28;1922;-63
2021/06/12 12:32:30;;;;;;;;;;;;;;;21.68;46.70;101923.03;5071366;28;1403;-63
2021/06/12 12:34:55;;;;;;;;;;;;;;;21.66;46.44;101922.38;5068037;28;1413;-63
2021/06/12 12:37:20;;;;;;;;;;;;;;;21.66;45.25;101924.22;5077341;28;1740;-62